createdAt,value
2018-02-12T00:01:41.954Z,22.31
2018-02-12T00:04:10.369Z,22.30
2018-02-12T00:06:38.672Z,22.29
2018-02-12T00:09:06.968Z,22.30
2018-02-12T00:11:35.259Z,22.28
2018-02-12T00:14:03.552Z,22.29
2018-02-12T00:16:31.830Z,22.27
2018-02-12T00:19:00.114Z,22.27
2018-02-12T00:21:28.400Z,22.29
2018-02-12T00:23:56.701Z,22.29
2018-02-12T00:26:25.000Z,22.29
2018-02-12T00:28:53.294Z,22.29
2018-02-12T00:31:21.591Z,22.28
2018-02-12T00:33:49.881Z,22.28
2018-02-12T00:36:18.217Z,22.30
2018-02-12T00:38:46.525Z,22.31
2018-02-12T00:41:14.850Z,22.32
2018-02-12T00:43:43.133Z,22.31
2018-02-12T00:46:11.401Z,22.32
2018-02-12T00:48:39.709Z,22.33
2018-02-12T00:51:08.000Z,22.35
2018-02-12T00:53:36.296Z,22.35
2018-02-12T00:56:04.372Z,22.37
2018-02-12T00:58:32.667Z,22.37
2018-02-12T01:01:00.951Z,22.38
2018-02-12T01:03:29.253Z,22.37
2018-02-12T01:05:57.577Z,22.38
2018-02-12T01:08:25.870Z,22.39
2018-02-12T01:10:54.153Z,22.41
2018-02-12T01:13:22.458Z,22.39
2018-02-12T01:15:50.758Z,22.40
2018-02-12T01:18:19.084Z,22.39
2018-02-12T01:20:47.185Z,22.39
2018-02-12T01:23:15.473Z,22.38
2018-02-12T01:25:43.760Z,22.38
2018-02-12T01:28:12.048Z,22.37
2018-02-12T01:30:40.320Z,22.37
2018-02-12T01:33:08.606Z,22.36
2018-02-12T01:35:36.893Z,22.37
2018-02-12T01:38:05.176Z,22.37
2018-02-12T01:40:34.245Z,22.37
2018-02-12T01:43:02.530Z,22.36
2018-02-12T01:45:30.831Z,22.35
2018-02-12T01:47:59.154Z,22.37
2018-02-12T01:50:27.288Z,22.37
2018-02-12T01:52:55.567Z,22.38
2018-02-12T01:55:23.906Z,22.40
2018-02-12T01:57:52.190Z,22.40
2018-02-12T02:00:20.490Z,22.40
2018-02-12T02:02:48.783Z,22.41
2018-02-12T02:05:17.074Z,22.41
2018-02-12T02:07:45.357Z,22.42
2018-02-12T02:10:13.629Z,22.43
2018-02-12T02:12:41.952Z,22.43
2018-02-12T02:15:10.244Z,22.42
2018-02-12T02:17:38.540Z,22.43
2018-02-12T02:20:06.851Z,22.43
2018-02-12T02:22:35.126Z,22.41
2018-02-12T02:25:03.404Z,22.41
2018-02-12T02:27:31.752Z,22.40
2018-02-12T02:30:00.056Z,22.41
2018-02-12T02:32:28.365Z,22.41
2018-02-12T02:34:56.658Z,22.41
2018-02-12T02:37:24.975Z,22.41
2018-02-12T02:39:53.265Z,22.41
2018-02-12T02:42:21.569Z,22.42
2018-02-12T02:44:49.871Z,22.42
2018-02-12T02:47:18.171Z,22.40
2018-02-12T02:49:46.470Z,22.40
2018-02-12T02:52:14.775Z,22.40
2018-02-12T02:54:43.087Z,22.41
2018-02-12T02:57:11.378Z,22.41
2018-02-12T02:59:39.672Z,22.40
2018-02-12T03:02:07.976Z,22.40
2018-02-12T03:04:36.272Z,22.39
2018-02-12T03:07:04.581Z,22.39
2018-02-12T03:09:32.869Z,22.39
2018-02-12T03:12:01.149Z,22.38
2018-02-12T03:14:29.481Z,22.37
2018-02-12T03:16:57.788Z,22.34
2018-02-12T03:19:26.083Z,22.33
2018-02-12T03:21:54.385Z,22.32
2018-02-12T03:24:22.680Z,22.29
2018-02-12T03:26:50.979Z,22.28
2018-02-12T03:29:19.263Z,22.28
2018-02-12T03:31:47.574Z,22.27
2018-02-12T03:34:15.863Z,22.27
2018-02-12T03:36:44.144Z,22.25
2018-02-12T03:39:12.440Z,21.49
2018-02-12T03:41:40.746Z,20.88
2018-02-12T03:44:09.049Z,21.04
2018-02-12T03:46:37.157Z,21.47
2018-02-12T03:49:05.452Z,21.66
2018-02-12T03:51:33.749Z,21.77
2018-02-12T03:54:02.031Z,21.84
2018-02-12T03:56:30.347Z,21.87
2018-02-12T03:58:58.635Z,21.88
2018-02-12T04:01:26.938Z,21.90
2018-02-12T04:03:55.222Z,21.90
2018-02-12T04:06:23.552Z,21.91
2018-02-12T04:08:51.845Z,21.93
2018-02-12T04:11:20.153Z,21.98
2018-02-12T04:13:48.474Z,22.02
2018-02-12T04:16:16.800Z,22.08
2018-02-12T04:18:44.926Z,22.12
2018-02-12T04:21:13.220Z,22.15
2018-02-12T04:23:41.513Z,22.13
2018-02-12T04:26:09.805Z,22.16
2018-02-12T04:28:38.107Z,22.20
2018-02-12T04:31:06.423Z,22.25
2018-02-12T04:33:34.716Z,22.28
2018-02-12T04:36:03.027Z,22.31
2018-02-12T04:38:31.344Z,22.34
2018-02-12T04:40:59.639Z,22.36
2018-02-12T04:43:27.928Z,22.37
2018-02-12T04:45:56.244Z,22.39
2018-02-12T04:48:24.656Z,22.37
2018-02-12T04:50:52.960Z,22.37
2018-02-12T04:53:21.279Z,22.38
2018-02-12T04:55:49.579Z,22.38
2018-02-12T04:58:17.868Z,22.38
2018-02-12T05:00:46.199Z,22.38
2018-02-12T05:03:14.487Z,22.39
2018-02-12T05:05:42.787Z,22.39
2018-02-12T05:08:11.121Z,22.39
2018-02-12T05:10:39.412Z,22.40
2018-02-12T05:13:07.737Z,22.40
2018-02-12T05:15:36.039Z,22.40
2018-02-12T05:18:04.345Z,22.41
2018-02-12T05:20:32.721Z,22.40
2018-02-12T05:23:01.039Z,22.41
2018-02-12T05:25:29.375Z,22.40
2018-02-12T05:27:57.686Z,22.41
2018-02-12T05:30:25.970Z,22.42
2018-02-12T05:32:54.276Z,22.43
2018-02-12T05:35:22.567Z,22.43
2018-02-12T05:37:50.880Z,22.43
2018-02-12T05:40:19.171Z,22.43
2018-02-12T05:42:47.466Z,22.44
2018-02-12T05:45:15.795Z,22.44
2018-02-12T05:47:44.094Z,22.41
2018-02-12T05:50:12.388Z,22.35
2018-02-12T05:52:40.684Z,22.32
2018-02-12T05:55:08.999Z,22.26
2018-02-12T05:57:37.287Z,22.25
2018-02-12T06:00:05.601Z,22.21
2018-02-12T06:02:33.909Z,22.21
2018-02-12T06:05:02.201Z,22.18
2018-02-12T06:07:30.528Z,22.26
2018-02-12T06:09:58.845Z,22.28
2018-02-12T06:12:27.119Z,22.30
2018-02-12T06:14:55.445Z,22.30
2018-02-12T06:17:23.740Z,22.28
2018-02-12T06:19:52.055Z,22.28
2018-02-12T06:22:20.333Z,22.28
2018-02-12T06:24:48.634Z,22.27
2018-02-12T06:27:16.936Z,22.26
2018-02-12T06:29:45.236Z,22.28
2018-02-12T06:32:13.528Z,22.27
2018-02-12T06:34:41.838Z,22.25
2018-02-12T06:37:10.140Z,22.25
2018-02-12T06:39:38.418Z,22.18
2018-02-12T06:42:06.717Z,22.14
2018-02-12T06:44:35.019Z,22.17
2018-02-12T06:47:03.298Z,21.69
2018-02-12T06:49:31.602Z,20.61
2018-02-12T06:51:59.908Z,20.02
2018-02-12T06:54:28.210Z,19.69
2018-02-12T06:56:56.527Z,19.43
2018-02-12T06:59:24.820Z,19.38
2018-02-12T07:01:53.127Z,19.20
2018-02-12T07:04:21.440Z,18.98
2018-02-12T07:06:49.772Z,18.91
2018-02-12T07:09:18.074Z,18.80
2018-02-12T07:11:46.362Z,18.76
2018-02-12T07:14:14.679Z,18.65
2018-02-12T07:16:42.958Z,18.64
2018-02-12T07:19:11.301Z,18.57
2018-02-12T07:21:39.627Z,18.44
2018-02-12T07:24:07.922Z,18.45
2018-02-12T07:26:36.230Z,18.44
2018-02-12T07:29:04.524Z,18.33
2018-02-12T07:31:32.617Z,18.29
2018-02-12T07:34:00.903Z,18.26
2018-02-12T07:36:29.219Z,18.24
2018-02-12T07:38:57.514Z,18.06
2018-02-12T07:41:25.814Z,18.06
2018-02-12T07:43:54.126Z,18.17
2018-02-12T07:46:22.414Z,18.01
2018-02-12T07:48:50.702Z,17.99
2018-02-12T07:51:19.009Z,17.93
2018-02-12T07:53:47.464Z,17.94
2018-02-12T07:56:15.784Z,17.84
2018-02-12T07:58:44.089Z,17.81
2018-02-12T08:01:12.410Z,17.83
2018-02-12T08:03:40.698Z,17.79
2018-02-12T08:06:09.021Z,17.81
2018-02-12T08:08:37.495Z,17.66
2018-02-12T08:11:05.782Z,17.67
2018-02-12T08:13:34.088Z,17.65
2018-02-12T08:16:02.389Z,17.68
2018-02-12T08:18:30.693Z,17.54
2018-02-12T08:20:59.009Z,17.58
2018-02-12T08:23:27.312Z,18.20
2018-02-12T08:25:55.654Z,18.83
2018-02-12T08:28:23.954Z,19.20
2018-02-12T08:30:52.242Z,19.45
2018-02-12T08:33:20.535Z,19.63
2018-02-12T08:35:48.838Z,19.78
2018-02-12T08:38:17.114Z,19.90
2018-02-12T08:40:45.425Z,20.00
2018-02-12T08:43:13.728Z,20.11
2018-02-12T08:45:42.050Z,20.21
2018-02-12T08:48:10.343Z,20.28
2018-02-12T08:50:38.670Z,20.37
2018-02-12T08:53:06.946Z,20.45
2018-02-12T08:55:35.227Z,20.52
2018-02-12T08:58:03.528Z,20.60
2018-02-12T09:00:31.832Z,20.67
2018-02-12T09:03:00.146Z,20.73
2018-02-12T09:05:28.443Z,20.80
2018-02-12T09:07:56.751Z,20.85
2018-02-12T09:10:25.046Z,20.88
2018-02-12T09:12:53.344Z,20.92
2018-02-12T09:15:21.638Z,20.96
2018-02-12T09:17:49.921Z,20.99
2018-02-12T09:20:18.072Z,20.98
2018-02-12T09:22:46.381Z,20.98
2018-02-12T09:25:14.661Z,20.98
2018-02-12T09:27:42.984Z,21.01
2018-02-12T09:30:11.472Z,21.05
2018-02-12T09:32:39.752Z,21.05
2018-02-12T09:35:08.111Z,21.01
2018-02-12T09:37:36.456Z,21.03
2018-02-12T09:40:04.584Z,21.04
2018-02-12T09:42:32.888Z,21.05
2018-02-12T09:45:01.197Z,21.03
2018-02-12T09:47:29.504Z,21.07
2018-02-12T09:49:58.023Z,21.07
2018-02-12T09:52:26.327Z,21.11
2018-02-12T09:54:54.650Z,21.15
2018-02-12T09:57:22.935Z,21.13
2018-02-12T09:59:51.218Z,21.14
2018-02-12T10:02:19.522Z,21.16
2018-02-12T10:04:47.825Z,21.17
2018-02-12T10:07:16.116Z,21.18
2018-02-12T10:09:44.432Z,21.19
2018-02-12T10:12:12.808Z,21.21
2018-02-12T10:14:41.116Z,21.00
2018-02-12T10:17:09.404Z,21.08
2018-02-12T10:19:37.717Z,21.18
2018-02-12T10:22:06.021Z,21.21
2018-02-12T10:24:34.328Z,21.26
2018-02-12T10:27:02.634Z,21.27
2018-02-12T10:29:30.933Z,21.32
2018-02-12T10:31:59.265Z,21.34
2018-02-12T10:34:27.569Z,21.37
2018-02-12T10:36:55.881Z,21.41
2018-02-12T10:39:24.185Z,21.44
2018-02-12T10:41:52.502Z,21.46
2018-02-12T10:44:20.808Z,21.49
2018-02-12T10:46:49.199Z,21.50
2018-02-12T10:49:17.497Z,21.47
2018-02-12T10:51:45.794Z,21.48
2018-02-12T10:54:14.119Z,21.49
2018-02-12T10:56:42.483Z,21.48
2018-02-12T10:59:10.990Z,21.49
2018-02-12T11:01:39.461Z,21.47
2018-02-12T11:04:07.825Z,21.48
2018-02-12T11:06:36.272Z,21.51
2018-02-12T11:09:04.143Z,21.50
2018-02-12T11:11:32.453Z,21.51
2018-02-12T11:14:00.774Z,21.48
2018-02-12T11:16:29.108Z,21.48
2018-02-12T11:18:57.399Z,21.48
2018-02-12T11:21:25.699Z,21.45
2018-02-12T11:23:54.003Z,21.47
2018-02-12T11:26:22.298Z,21.45
2018-02-12T11:28:50.596Z,21.48
2018-02-12T11:31:18.902Z,21.49
2018-02-12T11:33:47.190Z,21.48
2018-02-12T11:36:15.486Z,21.50
2018-02-12T11:38:43.853Z,21.54
2018-02-12T11:41:12.162Z,21.58
2018-02-12T11:43:40.459Z,21.56
2018-02-12T11:46:08.772Z,21.55
2018-02-12T11:48:37.074Z,21.53
2018-02-12T11:51:05.373Z,21.57
2018-02-12T11:53:33.693Z,21.54
2018-02-12T11:56:02.004Z,21.51
2018-02-12T11:58:30.126Z,21.56
2018-02-12T12:00:58.420Z,21.54
2018-02-12T12:03:26.717Z,21.51
2018-02-12T12:05:55.177Z,21.49
2018-02-12T12:08:23.522Z,21.53
2018-02-12T12:10:51.844Z,21.57
2018-02-12T12:13:20.145Z,21.60
2018-02-12T12:15:48.464Z,21.61
2018-02-12T12:18:16.867Z,21.61
2018-02-12T12:20:45.204Z,21.62
2018-02-12T12:23:13.550Z,21.66
2018-02-12T12:25:41.664Z,21.66
2018-02-12T12:28:09.970Z,21.68
2018-02-12T12:30:38.270Z,21.67
2018-02-12T12:33:06.585Z,21.69
2018-02-12T12:35:34.892Z,21.70
2018-02-12T12:38:03.287Z,21.71
2018-02-12T12:40:31.596Z,21.70
2018-02-12T12:43:00.517Z,21.73
2018-02-12T12:45:28.823Z,21.75
2018-02-12T12:47:57.115Z,21.77
2018-02-12T12:50:25.456Z,21.76
2018-02-12T12:52:53.765Z,21.76
2018-02-12T12:55:22.070Z,21.78
2018-02-12T12:57:50.377Z,21.80
2018-02-12T13:00:18.717Z,21.79
2018-02-12T13:02:47.031Z,21.79
2018-02-12T13:05:15.362Z,21.79
2018-02-12T13:07:43.672Z,21.81
2018-02-12T13:10:11.979Z,21.80
2018-02-12T13:12:40.289Z,21.79
2018-02-12T13:15:08.586Z,21.82
2018-02-12T13:17:36.880Z,21.83
2018-02-12T13:20:05.208Z,21.81
2018-02-12T13:22:33.519Z,21.82
2018-02-12T13:25:01.876Z,21.81
2018-02-12T13:27:30.191Z,21.78
2018-02-12T13:29:58.498Z,21.76
2018-02-12T13:32:26.809Z,21.72
2018-02-12T13:34:55.102Z,21.77
2018-02-12T13:37:23.438Z,21.77
2018-02-12T13:39:51.947Z,21.77
2018-02-12T13:42:20.956Z,21.76
2018-02-12T13:44:49.293Z,21.73
2018-02-12T13:47:17.610Z,21.75
2018-02-12T13:49:46.084Z,21.79
2018-02-12T13:52:14.375Z,21.76
2018-02-12T13:54:42.720Z,21.84
2018-02-12T13:57:11.028Z,21.91
2018-02-12T13:59:39.313Z,21.96
2018-02-12T14:02:07.618Z,22.01
2018-02-12T14:04:35.942Z,21.99
2018-02-12T14:07:04.254Z,21.93
2018-02-12T14:09:32.557Z,21.90
2018-02-12T14:12:02.627Z,21.88
2018-02-12T14:14:30.990Z,21.87
2018-02-12T14:16:59.300Z,21.86
2018-02-12T14:19:27.653Z,21.84
2018-02-12T14:21:55.986Z,21.87
2018-02-12T14:24:24.512Z,21.87
2018-02-12T14:26:52.914Z,21.86
2018-02-12T14:29:21.213Z,21.86
2018-02-12T14:31:49.517Z,21.87
2018-02-12T14:34:17.846Z,21.87
2018-02-12T14:36:46.190Z,21.88
2018-02-12T14:39:14.482Z,21.90
2018-02-12T14:41:42.774Z,21.91
2018-02-12T14:44:11.106Z,21.91
2018-02-12T14:46:39.480Z,21.92
2018-02-12T14:49:07.799Z,21.92
2018-02-12T14:51:36.089Z,21.92
2018-02-12T14:54:04.397Z,21.96
2018-02-12T14:56:32.737Z,21.94
2018-02-12T14:59:01.034Z,21.92
2018-02-12T15:01:29.332Z,21.95
2018-02-12T15:03:57.635Z,21.94
2018-02-12T15:06:25.951Z,21.94
2018-02-12T15:08:54.256Z,21.94
2018-02-12T15:11:22.782Z,21.91
2018-02-12T15:13:51.177Z,21.91
2018-02-12T15:16:19.478Z,21.91
2018-02-12T15:18:47.780Z,21.92
2018-02-12T15:21:16.089Z,21.85
2018-02-12T15:23:44.374Z,21.83
2018-02-12T15:26:12.680Z,21.83
2018-02-12T15:28:40.982Z,21.84
2018-02-12T15:31:09.275Z,21.80
2018-02-12T15:33:37.581Z,21.80
2018-02-12T15:36:05.901Z,21.83
2018-02-12T15:38:34.212Z,21.84
2018-02-12T15:41:02.498Z,21.84
2018-02-12T15:43:30.813Z,21.84
2018-02-12T15:45:59.111Z,21.82
2018-02-12T15:48:27.432Z,21.85
2018-02-12T15:50:55.728Z,21.84
2018-02-12T15:53:24.037Z,21.83
2018-02-12T15:55:52.357Z,21.83
2018-02-12T15:58:20.681Z,21.80
2018-02-12T16:00:48.969Z,21.80
2018-02-12T16:03:17.254Z,21.84
2018-02-12T16:05:45.556Z,21.81
2018-02-12T16:08:13.864Z,21.77
2018-02-12T16:10:42.171Z,21.84
2018-02-12T16:13:10.679Z,21.82
2018-02-12T16:15:38.983Z,21.81
2018-02-12T16:18:07.283Z,21.79
2018-02-12T16:20:35.607Z,21.76
2018-02-12T16:23:03.912Z,21.77
2018-02-12T16:25:32.253Z,21.76
2018-02-12T16:28:00.562Z,21.77
2018-02-12T16:30:28.882Z,21.77
2018-02-12T16:32:57.205Z,21.77
2018-02-12T16:35:25.503Z,21.76
2018-02-12T16:37:53.845Z,21.73
2018-02-12T16:40:22.140Z,21.74
2018-02-12T16:42:50.252Z,21.76
2018-02-12T16:45:18.557Z,21.76
2018-02-12T16:47:46.865Z,21.77
2018-02-12T16:50:15.235Z,21.81
2018-02-12T16:52:43.671Z,21.79
2018-02-12T16:55:11.958Z,21.77
2018-02-12T16:57:40.276Z,21.76
2018-02-12T17:00:08.569Z,21.76
2018-02-12T17:02:36.879Z,21.74
2018-02-12T17:05:04.978Z,21.76
2018-02-12T17:07:33.295Z,21.75
2018-02-12T17:10:01.597Z,21.74
2018-02-12T17:12:29.997Z,21.76
2018-02-12T17:14:58.315Z,21.74
2018-02-12T17:17:26.628Z,21.71
2018-02-12T17:19:54.930Z,21.75
2018-02-12T17:22:23.308Z,21.72
2018-02-12T17:24:51.743Z,21.70
2018-02-12T17:27:20.916Z,21.71
2018-02-12T17:29:49.288Z,21.71
2018-02-12T17:32:17.589Z,21.72
2018-02-12T17:34:45.938Z,21.72
2018-02-12T17:37:14.263Z,21.72
2018-02-12T17:39:42.593Z,21.70
2018-02-12T17:42:10.902Z,21.69
2018-02-12T17:44:39.223Z,21.68
2018-02-12T17:47:07.530Z,21.72
2018-02-12T17:49:35.860Z,21.71
2018-02-12T17:52:04.154Z,21.70
2018-02-12T17:54:32.262Z,21.70
2018-02-12T17:57:02.279Z,21.73
2018-02-12T17:59:30.574Z,21.74
2018-02-12T18:01:58.896Z,21.75
2018-02-12T18:04:27.206Z,21.71
2018-02-12T18:06:55.636Z,21.72
2018-02-12T18:09:23.978Z,21.72
2018-02-12T18:11:52.297Z,21.72
2018-02-12T18:14:20.595Z,21.72
2018-02-12T18:16:48.913Z,21.71
2018-02-12T18:19:17.239Z,21.72
2018-02-12T18:21:45.634Z,21.71
2018-02-12T18:24:13.961Z,21.59
2018-02-12T18:26:42.268Z,21.52
2018-02-12T18:29:10.555Z,21.62
2018-02-12T18:31:38.860Z,21.65
2018-02-12T18:34:07.211Z,21.68
2018-02-12T18:36:35.735Z,21.66
2018-02-12T18:39:04.053Z,21.68
2018-02-12T18:41:32.357Z,21.67
2018-02-12T18:44:00.678Z,21.71
2018-02-12T18:46:28.991Z,21.70
2018-02-12T18:48:57.340Z,21.70
2018-02-12T18:51:25.662Z,21.71
2018-02-12T18:53:53.953Z,21.74
2018-02-12T18:56:22.358Z,21.73
2018-02-12T18:58:50.562Z,21.73
2018-02-12T19:01:18.854Z,21.76
2018-02-12T19:03:47.165Z,21.77
2018-02-12T19:06:15.514Z,21.78
2018-02-12T19:08:43.876Z,21.78
2018-02-12T19:11:12.188Z,21.79
2018-02-12T19:13:41.468Z,21.79
2018-02-12T19:16:09.934Z,21.81
2018-02-12T19:18:38.358Z,21.82
2018-02-12T19:21:06.866Z,21.82
2018-02-12T19:23:35.247Z,21.83
2018-02-12T19:26:03.711Z,21.83
2018-02-12T19:28:32.016Z,21.84
2018-02-12T19:31:00.335Z,21.84
2018-02-12T19:33:28.660Z,21.85
2018-02-12T19:35:56.997Z,21.83
2018-02-12T19:38:25.423Z,21.84
2018-02-12T19:40:53.815Z,21.84
2018-02-12T19:43:22.603Z,21.84
2018-02-12T19:45:50.953Z,21.84
2018-02-12T19:48:19.347Z,21.84
2018-02-12T19:50:47.653Z,21.83
2018-02-12T19:53:15.989Z,21.82
2018-02-12T19:55:44.300Z,21.82
2018-02-12T19:58:13.155Z,21.82
2018-02-12T20:00:41.539Z,21.83
2018-02-12T20:03:09.847Z,21.81
2018-02-12T20:05:39.148Z,21.81
2018-02-12T20:08:08.339Z,21.78
2018-02-12T20:10:37.491Z,21.80
2018-02-12T20:13:10.595Z,21.78
2018-02-12T20:15:46.179Z,21.78
2018-02-12T20:18:14.538Z,21.80
2018-02-12T20:20:42.846Z,21.82
2018-02-12T20:23:11.773Z,21.83
2018-02-12T20:25:40.426Z,21.86
2018-02-12T20:28:08.735Z,21.86
2018-02-12T20:30:37.063Z,21.86
2018-02-12T20:33:05.427Z,21.89
2018-02-12T20:35:33.743Z,21.90
2018-02-12T20:38:02.222Z,21.92
2018-02-12T20:40:30.514Z,21.92
2018-02-12T20:42:59.116Z,21.93
2018-02-12T20:45:27.755Z,21.96
2018-02-12T20:47:56.235Z,21.96
2018-02-12T20:50:24.648Z,21.97
2018-02-12T20:52:52.990Z,21.97
2018-02-12T20:55:21.331Z,21.98
2018-02-12T20:57:49.646Z,21.97
2018-02-12T21:00:18.022Z,21.98
2018-02-12T21:02:46.482Z,21.99
2018-02-12T21:05:14.818Z,21.98
2018-02-12T21:07:42.974Z,21.96
2018-02-12T21:10:11.308Z,21.96
2018-02-12T21:12:39.631Z,21.96
2018-02-12T21:15:08.358Z,21.92
2018-02-12T21:17:36.654Z,21.91
2018-02-12T21:20:04.735Z,21.91
2018-02-12T21:22:33.052Z,21.92
2018-02-12T21:25:01.804Z,21.93
2018-02-12T21:27:30.135Z,21.94
2018-02-12T21:29:58.548Z,21.95
2018-02-12T21:32:26.861Z,21.95
2018-02-12T21:34:55.208Z,21.96
2018-02-12T21:37:23.547Z,21.99
2018-02-12T21:39:51.886Z,22.00
2018-02-12T21:42:20.213Z,22.01
2018-02-12T21:44:48.525Z,22.01
2018-02-12T21:47:16.813Z,22.02
2018-02-12T21:49:45.172Z,22.02
2018-02-12T21:52:13.474Z,22.02
2018-02-12T21:54:41.786Z,22.03
2018-02-12T21:57:10.108Z,22.04
2018-02-12T21:59:38.420Z,22.03
2018-02-12T22:02:06.755Z,22.03
2018-02-12T22:04:35.096Z,22.03
2018-02-12T22:07:03.401Z,22.03
2018-02-12T22:09:31.691Z,22.03
2018-02-12T22:11:59.995Z,22.02
2018-02-12T22:14:28.298Z,22.03
2018-02-12T22:16:56.591Z,22.01
2018-02-12T22:19:24.905Z,22.01
2018-02-12T22:21:53.200Z,21.99
2018-02-12T22:24:21.501Z,22.00
2018-02-12T22:26:49.811Z,22.00
2018-02-12T22:29:18.120Z,22.00
2018-02-12T22:31:46.443Z,22.01
2018-02-12T22:34:14.726Z,22.01
2018-02-12T22:36:43.050Z,22.02
2018-02-12T22:39:11.334Z,22.02
2018-02-12T22:41:39.641Z,22.01
2018-02-12T22:44:07.960Z,22.03
2018-02-12T22:46:36.262Z,22.03
2018-02-12T22:49:04.577Z,22.04
2018-02-12T22:51:32.869Z,22.04
2018-02-12T22:54:01.163Z,22.05
2018-02-12T22:56:29.477Z,22.07
2018-02-12T22:58:57.774Z,22.07
2018-02-12T23:01:26.077Z,22.07
2018-02-12T23:03:54.463Z,22.08
2018-02-12T23:06:22.776Z,22.08
2018-02-12T23:08:51.078Z,22.07
2018-02-12T23:11:19.377Z,22.07
2018-02-12T23:13:47.684Z,22.07
2018-02-12T23:16:15.969Z,22.07
2018-02-12T23:18:44.279Z,22.08
2018-02-12T23:21:12.590Z,22.07
2018-02-12T23:23:40.899Z,22.06
2018-02-12T23:26:09.190Z,22.06
2018-02-12T23:28:37.486Z,22.07
2018-02-12T23:31:05.805Z,22.08
2018-02-12T23:33:34.109Z,22.06
2018-02-12T23:36:02.416Z,22.07
2018-02-12T23:38:30.736Z,22.07
2018-02-12T23:40:59.043Z,22.07
2018-02-12T23:43:27.334Z,22.06
2018-02-12T23:45:55.735Z,22.07
2018-02-12T23:48:24.208Z,22.07
2018-02-12T23:50:52.506Z,22.07
2018-02-12T23:53:20.799Z,22.08
2018-02-12T23:55:49.140Z,22.09
2018-02-12T23:58:17.442Z,22.10
